Tuesday, June 19, 2018, 12:42 AM GMT
Back to Local

CWBK, Caribou Point Meteorological Aeronautical Presentation System

Location: , , Canada Lat: 45.767
Local Time: 12:42 AM GMT ( 0:42 GMT) Lon: -62.683
Time Zone: GMT Elev: 6 ft

Show me the last for .
Show Coded

Time T Td Feel RH Dir Speed Gust Alt SLP Vis Weather Sky Remarks
2018-06-19 00:00 61 58 - 89 210° 15 25 - 29.55 0 Peak wind: 29 mph (26 kts) from 220° at 36 min
1-hr Precip Total: 0.06"
2018-06-18 23:00 61 58 - 88 220° 16 24 - 29.59 0 Peak wind: 24 mph (21 kts) from 220° at 58 min
1-hr Precip Total: 0.07"
2018-06-18 22:00 61 56 - 82 220° 16 25 - 29.62 0 Peak wind: 28 mph (25 kts) from 210° at 27 min
2018-06-18 21:00 60 56 - 85 220° 10 24 - 29.64 0 Peak wind: 25 mph (22 kts) from 200° at 00 min
2018-06-18 20:00 56 56 - 97 190° 22 29 - 29.67 0 Peak wind: 35 mph (31 kts) from 180° at 43 min
Pressure falling rapidly
1-hr Precip Total: 0.14"
2018-06-18 19:00 57 54 - 91 180° 18 25 - 29.75 0 Peak wind: 25 mph (22 kts) from 180° at 59 min
1-hr Precip Total: 0.12"
2018-06-18 18:00 57 54 - 90 200° 14 22 - 29.80 0 Peak wind: 24 mph (21 kts) from 190° at 19 min
1-hr Precip Total: 0.02"
2018-06-18 17:00 56 53 - 89 200° 16 25 - 29.84 0 Peak wind: 32 mph (28 kts) from 200° at 03 min
2018-06-18 16:00 56 52 - 86 190° 22 33 - 29.85 0 Peak wind: 33 mph (29 kts) from 210° at 07 min
2018-06-18 15:00 56 50 - 78 200° 21 31 - 29.88 0 Peak wind: 34 mph (30 kts) from 190° at 07 min
2018-06-18 14:00 55 47 - 74 200° 23 33 - 29.90 0 Peak wind: 33 mph (29 kts) from 190° at 50 min
2018-06-18 13:00 53 45 - 75 190° 22 33 - 29.92 0 Peak wind: 33 mph (29 kts) from 190° at 56 min
2018-06-18 12:00 53 44 - 72 200° 21 31 - 29.95 0 Peak wind: 34 mph (30 kts) from 210° at 48 min
2018-06-18 11:00 52 44 - 73 200° 16 26 - 29.98 0 Peak wind: 31 mph (27 kts) from 200° at 02 min
2018-06-18 10:00 51 45 - 78 200° 15 24 - 30.01 0 Peak wind: 26 mph (23 kts) from 180° at 25 min
2018-06-18 09:00 51 44 - 77 190° 13 20 - 30.04 0 Peak wind: 21 mph (19 kts) from 180° at 45 min
2018-06-18 08:00 50 43 44 78 180° 12 17 - 30.07 0 None
2018-06-18 07:00 49 43 44 79 180° 15 - - 30.09 0 Peak wind: 19 mph (17 kts) from 190° at 53 min
2018-06-18 06:00 49 43 43 81 180° 13 - - 30.11 0 Peak wind: 19 mph (17 kts) from 170° at 17 min
2018-06-18 05:00 49 43 45 78 190° 10 - - 30.12 0 None
2018-06-18 04:00 49 43 46 78 190° 9 - - 30.14 0 Peak wind: 20 mph (18 kts) from 180° at 19 min
2018-06-18 03:00 50 43 44 77 180° 16 - - 30.14 0 Peak wind: 23 mph (20 kts) from 180° at 41 min
2018-06-18 02:00 51 42 - 70 170° 14 - - 30.14 0 Peak wind: 21 mph (19 kts) from 180° at 15 min
2018-06-18 01:00 54 46 - 73 180° 16 - - 30.14 0 Peak wind: 20 mph (18 kts) from 180° at 58 min

Support USWX by starting your Amazon purchase here.